Anco, KY

3:34 PM EDT on August 22, 2014 (GMT -0400)
Carroll | Change Station
CLOSE
Current Station
Airport
Location: Jackson,
Elevation: 1381 ft
Nearby Weather Stations

Elev 1381 ft 37.59 °N, 83.31 °W | Updated 41 minutes ago

Scattered Clouds
Scattered Clouds
86 °F
Feels Like 94 °F
N
5
Wind Variable Wind from Variable

Today
High -- | Low -- °F
--% Chance of Precip.
Yesterday
High -- | Low -- °F
Precip. -- in
6:54 AM 8:14 PM
Waning Crescent, 7% visible
Pressure 29.99 in
Visibility 10.0 miles
Clouds Few 3200 ft
Few 4000 ft
Scattered Clouds 8000 ft
Heat Index 94 °F
Dew Point 74 °F
Humidity 67%
Rainfall 0.00 in
Snow Depth Not available.
UV 8 out of 12
Pollen 7.80 out of 12
Air Quality Not available.
Flu Activity Not available.
METAR KJKL 221853Z AUTO VRB04KT 10SM FEW032 FEW040 SCT080 30/23 A3004 RMK AO2 SLP154 T03000233

More Conditions Fewer Conditions

Pressure 29.99 in
Visibility 10.0 miles
Clouds Few 3200 ft
Few 4000 ft
Scattered Clouds 8000 ft
Heat Index 94 °F
Dew Point 74 °F
Humidity 67%
Rainfall 0.00 in
Snow Depth Not available.
UV 8 out of 12
Pollen 7.80 out of 12
Air Quality Not available.
Flu Activity Not available.
METAR KJKL 221853Z AUTO VRB04KT 10SM FEW032 FEW040 SCT080 30/23 A3004 RMK AO2 SLP154 T03000233

More Conditions Fewer Conditions

10-Day Weather Forecast

Almanac

Astronomy

Aug. 22, 2014 Rise Set
Actual Time 6:54 AM EDT 8:14 PM EDT
Civil Twilight 6:27 AM EDT 8:42 PM EDT
Nautical Twilight 5:54 AM EDT 9:14 PM EDT
Astronomical Twilight 5:20 AM EDT 9:48 PM EDT
Moon 4:17 AM EDT 6:21 PM EDT
Length of Visible Light 14h 14m
Length of Day
13h 20m
Tomorrow will be 2m 11s shorter.
Waning Crescent, 7% of the Moon is Illuminated
Today
Waning Crescent
Aug 25
New
Sep 2
First Quarter
Sep 8
Full
Sep 15
Last Quarter

Today's Extremes

State Highs State Lows

Community

WunderPhotos

Upload Photos

1,746,226 photos uploaded!

Nearby

Snow Depth

Station Depth Elevation
No new snow has been reported.

Earthquake Activity

City Distance Mag. Time & Date
No recent earthquake activity has been reported nearby.
Minimum magnitude displayed is 2.5.

Coastal Water Temperatures

Place Temperature
No Stations Reporting

Nearby Weather Stations